Garland, Maine
Current Conditions -  °F | °C
As of 3:53 PM on Wednesday 26 Nov 2014 (Local Time) from KBGR Reporting Station
Moderate Snow Moderate Snow  
Wind Chill: 28°   Ceiling: 500
Heat Index: 33°   Visibility: 0.5mi
Dew Point: 31°   Wind: 6mph
Humidity: 92%   Direction: 10°N
Pressure: 30.19"   Gusts: NA
Location:  45.04°N, 69.16°W
Report Text: KBGR 262053Z 01005KT 1/2SM R15/3500V4500FT SN FG VV005 01/M01 A3019 RMK AO2 SLP225 P0008 60014 T00061006 50006
Loading
Personal Weather Stations






























Interactive Weather Map New forecast layout! Learn more

10-Day Weather Forecast

Advertisements
Track Severe Weather on mobile